Time;durP1;ratioP1;P1;durP2;ratioP2;P2;SDS_P1;SDS_P2;PMS_P1;PMS_P2;Temp;Humidity;BMP_temperature;BMP_pressure;BME280_temperature;BME280_humidity;BME280_pressure;Samples;Min_cycle;Max_cycle;Signal;HPM_P1;HPM_P2
2022/10/12 00:00:23;;;;;;;1999.90;999.90;;;7.90;99.90;;;;;;4974524;28;20249;-71
2022/10/12 00:02:48;;;;;;;1999.90;999.90;;;7.80;99.90;;;;;;4974419;28;20686;-71
2022/10/12 00:05:14;;;;;;;1999.90;999.90;;;7.70;99.90;;;;;;4974335;28;20208;-71
2022/10/12 00:07:39;;;;;;;1999.90;999.90;;;7.60;99.90;;;;;;4973984;28;20166;-71
2022/10/12 00:10:05;;;;;;;1999.90;999.90;;;7.60;99.90;;;;;;4973645;28;20166;-71
2022/10/12 00:12:32;;;;;;;1999.90;999.90;;;7.60;99.90;;;;;;4974241;28;20198;-71
2022/10/12 00:14:57;;;;;;;1999.90;999.90;;;7.60;99.90;;;;;;4974296;28;20422;-71
2022/10/12 00:17:23;;;;;;;1999.90;999.90;;;7.60;99.90;;;;;;4974222;28;20445;-70
2022/10/12 00:19:51;;;;;;;1999.90;999.90;;;7.50;99.90;;;;;;4974332;28;20170;-70
2022/10/12 00:22:16;;;;;;;1999.90;999.90;;;7.40;99.90;;;;;;4974354;28;20201;-71
2022/10/12 00:24:42;;;;;;;1999.90;999.90;;;7.30;99.90;;;;;;4974589;28;20488;-71
2022/10/12 00:27:07;;;;;;;1999.90;999.90;;;7.40;99.90;;;;;;4974026;28;20182;-70
2022/10/12 00:29:33;;;;;;;1999.90;999.90;;;7.30;99.90;;;;;;4974357;28;20563;-71
2022/10/12 00:31:59;;;;;;;1999.90;999.90;;;7.30;99.90;;;;;;4974467;28;20229;-71
2022/10/12 00:34:24;;;;;;;1999.90;999.90;;;7.30;99.90;;;;;;4974132;28;20182;-70
2022/10/12 00:36:50;;;;;;;1999.90;999.90;;;7.40;99.90;;;;;;4973879;28;20202;-70
2022/10/12 00:39:15;;;;;;;1999.90;999.90;;;7.30;99.90;;;;;;4974106;28;20181;-71
2022/10/12 00:41:43;;;;;;;1999.90;999.90;;;7.30;99.90;;;;;;4974130;28;20276;-71
2022/10/12 00:44:46;;;;;;;1999.90;999.90;;;7.30;99.90;;;;;;4974389;28;20667;-70
2022/10/12 00:47:31;;;;;;;1999.90;999.90;;;7.30;99.90;;;;;;4973969;28;20429;-70
2022/10/12 00:50:00;;;;;;;1999.90;999.90;;;7.30;99.90;;;;;;4974297;28;20402;-70
2022/10/12 00:52:32;;;;;;;1999.90;999.90;;;7.30;99.90;;;;;;4974177;28;20397;-70
2022/10/12 00:54:59;;;;;;;1999.90;999.90;;;7.20;99.90;;;;;;4973883;28;20402;-70
2022/10/12 00:57:25;;;;;;;1999.90;999.90;;;7.20;99.90;;;;;;4973774;28;20514;-70
2022/10/12 01:00:03;;;;;;;1999.90;999.90;;;7.10;99.90;;;;;;4974061;28;20484;-72
2022/10/12 01:02:33;;;;;;;1999.90;999.90;;;7.10;99.90;;;;;;4973901;28;20260;-71
2022/10/12 01:04:59;;;;;;;1999.90;999.90;;;7.10;99.90;;;;;;4973709;28;20419;-70
2022/10/12 01:07:25;;;;;;;1999.90;999.90;;;7.10;99.90;;;;;;4973773;28;20440;-71
2022/10/12 01:09:51;;;;;;;1999.90;999.90;;;7.00;99.90;;;;;;4973928;28;20395;-70
2022/10/12 01:12:17;;;;;;;1999.90;999.90;;;7.00;99.90;;;;;;4974004;28;20412;-70
2022/10/12 01:14:43;;;;;;;1999.90;999.90;;;6.90;99.90;;;;;;4974002;28;20441;-70
2022/10/12 01:17:16;;;;;;;1999.90;999.90;;;6.90;99.90;;;;;;4973686;28;20417;-70
2022/10/12 01:20:03;;;;;;;1999.90;999.90;;;6.80;99.90;;;;;;4974083;28;20170;-71
2022/10/12 01:22:39;;;;;;;1999.90;999.90;;;7.00;99.90;;;;;;4973659;28;20452;-71
2022/10/12 01:25:31;;;;;;;1999.90;999.90;;;7.00;99.90;;;;;;4973900;28;20414;-70
2022/10/12 01:28:13;;;;;;;1999.90;999.90;;;7.00;99.90;;;;;;4957930;28;20481;-71
2022/10/12 01:30:47;;;;;;;1999.90;999.90;;;7.00;99.90;;;;;;4973251;28;20413;-71
2022/10/12 01:33:27;;;;;;;1999.90;999.90;;;6.90;99.90;;;;;;4973100;28;20418;-71
2022/10/12 01:36:14;;;;;;;1999.90;999.90;;;7.00;99.90;;;;;;4973147;28;20509;-71
2022/10/12 01:39:06;;;;;;;1999.90;999.90;;;7.00;99.90;;;;;;4973021;28;20405;-71
2022/10/12 01:41:40;;;;;;;1999.90;999.90;;;7.00;99.90;;;;;;4972984;28;20457;-71
2022/10/12 01:44:06;;;;;;;1999.90;999.90;;;6.90;99.90;;;;;;4973066;28;20406;-71
2022/10/12 01:46:31;;;;;;;1999.90;999.90;;;6.90;99.90;;;;;;4972765;28;20824;-71
2022/10/12 01:49:00;;;;;;;1999.90;999.90;;;6.90;99.90;;;;;;4972772;28;20163;-71
2022/10/12 01:51:37;;;;;;;1999.90;999.90;;;6.90;99.90;;;;;;4973003;28;20170;-71
2022/10/12 01:54:33;;;;;;;1999.90;999.90;;;6.80;99.90;;;;;;4972922;28;20414;-71
2022/10/12 01:57:17;;;;;;;1999.90;999.90;;;6.90;99.90;;;;;;4972649;28;20430;-71
2022/10/12 02:00:04;;;;;;;1999.90;999.90;;;6.80;99.90;;;;;;4972891;28;20413;-71
2022/10/12 02:02:39;;;;;;;1999.90;999.90;;;6.80;99.90;;;;;;4972696;28;20456;-71
2022/10/12 02:05:23;;;;;;;1999.90;999.90;;;6.70;99.90;;;;;;4972783;28;20413;-71
2022/10/12 02:08:24;;;;;;;1999.90;999.90;;;6.70;99.90;;;;;;4972590;28;20743;-71
2022/10/12 02:11:03;;;;;;;1999.90;999.90;;;6.50;99.90;;;;;;4950442;28;20445;-71
2022/10/12 02:13:33;;;;;;;1999.90;999.90;;;6.40;99.90;;;;;;4972817;28;20398;-71
2022/10/12 02:16:02;;;;;;;1999.90;999.90;;;6.40;99.90;;;;;;4972609;28;20425;-71
2022/10/12 02:18:32;;;;;;;1999.90;999.90;;;6.40;99.90;;;;;;4972586;28;20754;-71
2022/10/12 02:20:59;;;;;;;1999.90;999.90;;;6.30;99.90;;;;;;4972541;28;20398;-73
2022/10/12 02:23:27;;;;;;;1999.90;999.90;;;6.30;99.90;;;;;;4972963;28;20421;-73
2022/10/12 02:25:54;;;;;;;1999.90;999.90;;;6.20;99.90;;;;;;4972545;28;20468;-73
2022/10/12 02:28:25;;;;;;;1999.90;999.90;;;6.30;99.90;;;;;;4972503;28;20409;-73
2022/10/12 02:31:01;;;;;;;1999.90;999.90;;;6.30;99.90;;;;;;4972648;28;20409;-71
2022/10/12 02:33:45;;;;;;;1999.90;999.90;;;6.30;99.90;;;;;;4972942;28;20842;-71
2022/10/12 02:36:19;;;;;;;1999.90;999.90;;;6.20;99.90;;;;;;4975884;28;20469;-71
2022/10/12 02:38:57;;;;;;;1999.90;999.90;;;6.30;99.90;;;;;;4975901;28;20484;-71
2022/10/12 02:41:28;;;;;;;1999.90;999.90;;;6.30;99.90;;;;;;4975938;28;20852;-71
2022/10/12 02:44:01;;;;;;;1999.90;999.90;;;6.30;99.90;;;;;;4975931;28;20417;-73
2022/10/12 02:46:30;;;;;;;1999.90;999.90;;;6.30;99.90;;;;;;4976916;28;21104;-73
2022/10/12 02:48:57;;;;;;;1999.90;999.90;;;6.20;99.90;;;;;;4977456;28;20465;-72
2022/10/12 02:51:25;;;;;;;1999.90;999.90;;;6.20;99.90;;;;;;4978117;28;20417;-73
2022/10/12 02:53:52;;;;;;;1999.90;999.90;;;6.20;99.90;;;;;;4977696;28;20416;-73
2022/10/12 02:56:17;;;;;;;1999.90;999.90;;;6.20;99.90;;;;;;4977449;28;20430;-74
2022/10/12 02:58:45;;;;;;;1999.90;999.90;;;6.20;99.90;;;;;;4976124;28;20420;-72
2022/10/12 03:01:11;;;;;;;1999.90;999.90;;;6.20;99.90;;;;;;4976205;28;20198;-72
2022/10/12 03:03:37;;;;;;;1999.90;999.90;;;6.20;99.90;;;;;;4976344;28;20512;-73
2022/10/12 03:06:04;;;;;;;1999.90;999.90;;;6.10;99.90;;;;;;4976099;28;20858;-72
2022/10/12 03:08:30;;;;;;;1999.90;999.90;;;6.10;99.90;;;;;;4976160;28;20401;-72
2022/10/12 03:11:01;;;;;;;1999.90;999.90;;;6.10;99.90;;;;;;4976182;28;20911;-72
2022/10/12 03:13:27;;;;;;;1999.90;999.90;;;6.20;99.90;;;;;;4976512;28;20413;-73
2022/10/12 03:15:52;;;;;;;1999.90;999.90;;;6.30;99.90;;;;;;4976285;28;20926;-73
2022/10/12 03:18:18;;;;;;;1999.90;999.90;;;6.20;99.90;;;;;;4975952;28;20175;-74
2022/10/12 03:20:47;;;;;;;1999.90;999.90;;;6.20;99.90;;;;;;4975910;28;20162;-73
2022/10/12 03:23:13;;;;;;;1999.90;999.90;;;6.20;99.90;;;;;;4975983;28;20179;-73
2022/10/12 03:25:38;;;;;;;1999.90;999.90;;;6.30;99.90;;;;;;4976174;28;20509;-73
2022/10/12 03:28:04;;;;;;;1999.90;999.90;;;6.30;99.90;;;;;;4976022;28;20163;-73
2022/10/12 03:30:30;;;;;;;1999.90;999.90;;;6.30;99.90;;;;;;4976186;28;20167;-73
2022/10/12 03:32:56;;;;;;;1999.90;999.90;;;6.30;99.90;;;;;;4975958;28;20405;-72
2022/10/12 03:35:21;;;;;;;1999.90;999.90;;;6.30;99.90;;;;;;4975651;28;20194;-73
2022/10/12 03:37:47;;;;;;;1999.90;999.90;;;6.30;99.90;;;;;;4975043;28;20674;-73
2022/10/12 03:40:13;;;;;;;1999.90;999.90;;;6.30;99.90;;;;;;4975339;28;20456;-73
2022/10/12 03:42:38;;;;;;;1999.90;999.90;;;6.20;99.90;;;;;;4975172;28;20198;-73
2022/10/12 03:45:04;;;;;;;1999.90;999.90;;;6.20;99.90;;;;;;4974944;28;20206;-73
2022/10/12 03:47:30;;;;;;;1999.90;999.90;;;6.10;99.90;;;;;;4974850;28;20181;-72
2022/10/12 03:49:55;;;;;;;1999.90;999.90;;;6.10;99.90;;;;;;4975133;28;20427;-73
2022/10/12 03:52:21;;;;;;;1999.90;999.90;;;6.10;99.90;;;;;;4975215;28;20961;-74
2022/10/12 03:54:46;;;;;;;1999.90;999.90;;;6.10;99.90;;;;;;4975141;28;20174;-73
2022/10/12 03:57:12;;;;;;;1999.90;999.90;;;6.20;99.90;;;;;;4974832;28;20181;-73
2022/10/12 03:59:37;;;;;;;1999.90;999.90;;;6.20;99.90;;;;;;4975159;28;20179;-73
2022/10/12 04:02:03;;;;;;;1999.90;999.90;;;6.20;99.90;;;;;;4975112;28;20269;-74
2022/10/12 04:04:28;;;;;;;1999.90;999.90;;;6.10;99.90;;;;;;4975019;28;20181;-73
2022/10/12 04:06:54;;;;;;;1999.90;999.90;;;6.10;99.90;;;;;;4974858;28;20182;-72
2022/10/12 04:09:19;;;;;;;1999.90;999.90;;;6.10;99.90;;;;;;4974944;28;20707;-73
2022/10/12 04:11:45;;;;;;;1999.90;999.90;;;6.20;99.90;;;;;;4974879;28;20206;-73
2022/10/12 04:14:11;;;;;;;1999.90;999.90;;;6.20;99.90;;;;;;4975003;28;20174;-73
2022/10/12 04:16:36;;;;;;;1999.90;999.90;;;6.20;99.90;;;;;;4974816;28;20197;-73
2022/10/12 04:19:02;;;;;;;1999.90;999.90;;;6.20;99.90;;;;;;4974846;28;20178;-73
2022/10/12 04:21:30;;;;;;;1999.90;999.90;;;6.10;99.90;;;;;;4974516;28;20252;-74
2022/10/12 04:23:56;;;;;;;1999.90;999.90;;;6.10;99.90;;;;;;4974528;28;20167;-73
2022/10/12 04:26:22;;;;;;;1999.90;999.90;;;6.10;99.90;;;;;;4974239;28;20421;-73
2022/10/12 04:28:47;;;;;;;1999.90;999.90;;;6.10;99.90;;;;;;4974400;28;20288;-73
2022/10/12 04:31:13;;;;;;;1999.90;999.90;;;6.10;99.90;;;;;;4974581;28;20170;-73
2022/10/12 04:33:38;;;;;;;1999.90;999.90;;;6.00;99.90;;;;;;4974562;28;20173;-73
2022/10/12 04:36:04;;;;;;;1999.90;999.90;;;5.90;99.90;;;;;;4974344;28;20187;-73
2022/10/12 04:38:30;;;;;;;1999.90;999.90;;;5.90;99.90;;;;;;4974260;28;20174;-73
2022/10/12 04:40:56;;;;;;;1999.90;999.90;;;5.90;99.90;;;;;;4974406;28;20177;-73
2022/10/12 04:43:22;;;;;;;1999.90;999.90;;;5.90;99.90;;;;;;4974268;28;20173;-73
2022/10/12 04:45:58;;;;;;;1999.90;999.90;;;5.90;99.90;;;;;;4974351;28;20524;-73
2022/10/12 04:48:25;;;;;;;1999.90;999.90;;;5.90;99.90;;;;;;4974383;28;20174;-73
2022/10/12 04:50:50;;;;;;;1999.90;999.90;;;5.90;99.90;;;;;;4974435;28;20433;-74
2022/10/12 04:53:16;;;;;;;1999.90;999.90;;;5.90;99.90;;;;;;4974128;28;20934;-73
2022/10/12 04:55:42;;;;;;;1999.90;999.90;;;5.90;99.90;;;;;;4974100;28;21132;-73
2022/10/12 04:58:07;;;;;;;1999.90;999.90;;;5.80;99.90;;;;;;4973291;28;20173;-73
2022/10/12 05:00:33;;;;;;;1999.90;999.90;;;5.80;99.90;;;;;;4973597;28;20537;-73
2022/10/12 05:02:59;;;;;;;1999.90;999.90;;;5.80;99.90;;;;;;4973450;28;20210;-72
2022/10/12 05:05:24;;;;;;;1999.90;999.90;;;5.80;99.90;;;;;;4973545;28;20193;-73
2022/10/12 05:07:50;;;;;;;1999.90;999.90;;;5.80;99.90;;;;;;4973335;28;20260;-73
2022/10/12 05:10:17;;;;;;;1999.90;999.90;;;5.80;99.90;;;;;;4973615;28;20167;-73
2022/10/12 05:12:42;;;;;;;1999.90;999.90;;;5.70;99.90;;;;;;4973825;28;20414;-72
2022/10/12 05:15:09;;;;;;;1999.90;999.90;;;5.70;99.90;;;;;;4973730;28;21050;-73
2022/10/12 05:17:35;;;;;;;1999.90;999.90;;;5.70;99.90;;;;;;4973493;28;20181;-72
2022/10/12 05:20:00;;;;;;;1999.90;999.90;;;5.70;99.90;;;;;;4973772;28;20907;-73
2022/10/12 05:22:26;;;;;;;1999.90;999.90;;;5.70;99.90;;;;;;4973461;28;20198;-73
2022/10/12 05:24:51;;;;;;;1999.90;999.90;;;5.70;99.90;;;;;;4973821;28;20200;-73
2022/10/12 05:27:17;;;;;;;1999.90;999.90;;;5.60;99.90;;;;;;4973638;28;20636;-73
2022/10/12 05:29:42;;;;;;;1999.90;999.90;;;5.60;99.90;;;;;;4973730;28;20174;-72
2022/10/12 05:32:08;;;;;;;1999.90;999.90;;;5.50;99.90;;;;;;4972536;28;20171;-73
2022/10/12 05:34:34;;;;;;;1999.90;999.90;;;5.50;99.90;;;;;;4973601;28;20166;-73
2022/10/12 05:37:00;;;;;;;1999.90;999.90;;;5.40;99.90;;;;;;4973234;28;20198;-73
2022/10/12 05:39:25;;;;;;;1999.90;999.90;;;5.40;99.90;;;;;;4973083;28;20601;-72
2022/10/12 05:41:53;;;;;;;1999.90;999.90;;;5.40;99.90;;;;;;4973076;28;20541;-72
2022/10/12 05:44:18;;;;;;;1999.90;999.90;;;5.40;99.90;;;;;;4973251;28;20253;-72
2022/10/12 05:46:44;;;;;;;1999.90;999.90;;;5.40;99.90;;;;;;4972636;28;20536;-72
2022/10/12 05:49:09;;;;;;;1999.90;999.90;;;5.40;99.90;;;;;;4972893;28;20651;-72
2022/10/12 05:51:37;;;;;;;1999.90;999.90;;;5.40;99.90;;;;;;4973107;28;20269;-72
2022/10/12 05:54:03;;;;;;;1999.90;999.90;;;5.30;99.90;;;;;;4973241;28;20182;-73
2022/10/12 05:56:29;;;;;;;1999.90;999.90;;;5.30;99.90;;;;;;4972980;28;20839;-73
2022/10/12 05:58:55;;;;;;;1999.90;999.90;;;5.30;99.90;;;;;;4973110;28;20413;-73
2022/10/12 06:01:20;;;;;;;1999.90;999.90;;;5.30;99.90;;;;;;4973033;28;20508;-73
2022/10/12 06:03:46;;;;;;;1999.90;999.90;;;5.30;99.90;;;;;;4973033;28;20555;-73
2022/10/12 06:06:12;;;;;;;1999.90;999.90;;;5.30;99.90;;;;;;4972644;28;20675;-73
2022/10/12 06:08:37;;;;;;;1999.90;999.90;;;5.20;99.90;;;;;;4973336;28;20217;-73
2022/10/12 06:11:04;;;;;;;1999.90;999.90;;;5.30;99.90;;;;;;4976535;28;20541;-73
2022/10/12 06:13:29;;;;;;;1999.90;999.90;;;5.20;99.90;;;;;;4976548;28;20202;-73
2022/10/12 06:15:55;;;;;;;1999.90;999.90;;;5.30;99.90;;;;;;4976288;28;20789;-73
2022/10/12 06:18:21;;;;;;;1999.90;999.90;;;5.30;99.90;;;;;;4976190;28;20171;-73
2022/10/12 06:20:49;;;;;;;1999.90;999.90;;;5.40;99.90;;;;;;4976500;28;20167;-72
2022/10/12 06:23:15;;;;;;;1999.90;999.90;;;5.40;99.90;;;;;;4977190;28;20455;-73
2022/10/12 06:25:41;;;;;;;1999.90;999.90;;;5.40;99.90;;;;;;4976495;28;20873;-72
2022/10/12 06:28:07;;;;;;;1999.90;999.90;;;5.40;99.90;;;;;;4976549;28;20436;-73
2022/10/12 06:30:32;;;;;;;1999.90;999.90;;;5.40;99.90;;;;;;4976893;28;20201;-73
2022/10/12 06:32:58;;;;;;;1999.90;999.90;;;5.50;99.90;;;;;;4977225;28;20171;-73
2022/10/12 06:35:23;;;;;;;1999.90;999.90;;;5.60;99.90;;;;;;4977176;28;20230;-73
2022/10/12 06:37:50;;;;;;;1999.90;999.90;;;5.60;99.90;;;;;;4976949;28;20222;-73
2022/10/12 06:40:17;;;;;;;1999.90;999.90;;;5.60;99.90;;;;;;4977422;28;20182;-73
2022/10/12 06:42:42;;;;;;;1999.90;999.90;;;5.60;99.90;;;;;;4977016;28;20536;-73
2022/10/12 06:45:09;;;;;;;1999.90;999.90;;;5.70;99.90;;;;;;4976957;28;20573;-72
2022/10/12 06:47:34;;;;;;;1999.90;999.90;;;5.70;99.90;;;;;;4976170;28;20197;-73
2022/10/12 06:50:00;;;;;;;1999.90;999.90;;;5.90;99.90;;;;;;4976621;28;21055;-73
2022/10/12 06:52:25;;;;;;;1999.90;999.90;;;5.90;99.90;;;;;;4976726;28;20181;-72
2022/10/12 06:54:51;;;;;;;1999.90;999.90;;;5.90;99.90;;;;;;4976713;28;20173;-73
2022/10/12 06:57:16;;;;;;;1999.90;999.90;;;6.00;99.90;;;;;;4976728;28;20163;-73
2022/10/12 06:59:42;;;;;;;1999.90;999.90;;;6.00;99.90;;;;;;4976223;28;20170;-73
2022/10/12 07:02:12;;;;;;;1999.90;999.90;;;6.10;99.90;;;;;;4976068;28;20197;-73
2022/10/12 07:04:37;;;;;;;1999.90;999.90;;;6.20;99.90;;;;;;4976097;28;20183;-72
2022/10/12 07:07:03;;;;;;;1999.90;999.90;;;6.30;99.90;;;;;;4975810;28;20970;-73
2022/10/12 07:09:29;;;;;;;1999.90;999.90;;;7.20;99.90;;;;;;4975694;28;20171;-72
2022/10/12 07:11:54;;;;;;;1999.90;999.90;;;6.40;99.90;;;;;;4975555;28;20640;-72
2022/10/12 07:14:20;;;;;;;1999.90;999.90;;;6.50;99.90;;;;;;4975421;28;20174;-72
2022/10/12 07:16:46;;;;;;;1999.90;999.90;;;6.60;99.90;;;;;;4975417;28;20213;-72
2022/10/12 07:19:12;;;;;;;1999.90;999.90;;;6.60;99.90;;;;;;4975051;28;20617;-73
2022/10/12 07:21:38;;;;;;;1999.90;999.90;;;6.70;99.90;;;;;;4975749;28;20446;-73
2022/10/12 07:24:04;;;;;;;1999.90;999.90;;;6.80;99.90;;;;;;4975936;28;20417;-73
2022/10/12 07:26:30;;;;;;;1999.90;999.90;;;6.80;99.90;;;;;;4975663;28;20796;-73
2022/10/12 07:28:56;;;;;;;1999.90;999.90;;;6.90;99.90;;;;;;4975554;28;20402;-73
2022/10/12 07:31:22;;;;;;;1999.90;999.90;;;7.00;99.90;;;;;;4975689;28;20440;-73
2022/10/12 07:33:48;;;;;;;1999.90;999.90;;;7.10;99.90;;;;;;4975684;28;20410;-73
2022/10/12 07:36:14;;;;;;;1999.90;999.90;;;7.20;99.90;;;;;;4974947;28;20202;-72
2022/10/12 07:38:43;;;;;;;1999.90;999.90;;;7.30;99.90;;;;;;4974810;28;20509;-72
2022/10/12 07:41:09;;;;;;;1999.90;999.90;;;7.50;99.90;;;;;;4974850;28;20469;-72
2022/10/12 07:43:35;;;;;;;1999.90;999.90;;;7.50;99.90;;;;;;4975090;28;20501;-73
2022/10/12 07:46:02;;;;;;;1999.90;999.90;;;7.60;99.90;;;;;;4974648;28;20541;-72
2022/10/12 07:48:28;;;;;;;1999.90;999.90;;;7.60;99.90;;;;;;4974833;28;20174;-73
2022/10/12 07:50:53;;;;;;;1999.90;999.90;;;7.70;99.90;;;;;;4974960;28;20411;-73
2022/10/12 07:53:19;;;;;;;1999.90;999.90;;;7.80;99.90;;;;;;4974720;28;20178;-72
2022/10/12 07:55:45;;;;;;;1999.90;999.90;;;7.90;99.90;;;;;;4974665;28;20190;-73
2022/10/12 07:58:11;;;;;;;1999.90;999.90;;;8.10;99.90;;;;;;4974449;28;20427;-73
2022/10/12 08:00:38;;;;;;;1999.90;999.90;;;8.20;99.90;;;;;;4974479;28;20178;-73
2022/10/12 08:03:03;;;;;;;1999.90;999.90;;;8.30;99.90;;;;;;4975068;28;20453;-73
2022/10/12 08:05:29;;;;;;;1999.90;999.90;;;8.50;99.90;;;;;;4975372;28;20430;-73
2022/10/12 08:07:54;;;;;;;1999.90;999.90;;;8.60;99.90;;;;;;4975193;28;20175;-73
2022/10/12 08:10:20;;;;;;;1999.90;999.90;;;8.70;99.90;;;;;;4975274;28;20167;-73
2022/10/12 08:12:46;;;;;;;1999.90;999.90;;;8.70;99.90;;;;;;4975324;28;20170;-73
2022/10/12 08:15:13;;;;;;;1999.90;999.90;;;8.90;99.90;;;;;;4974778;28;20550;-72
2022/10/12 08:17:38;;;;;;;1999.90;999.90;;;9.00;99.90;;;;;;4974028;28;20918;-72
2022/10/12 08:20:05;;;;;;;1999.90;999.90;;;9.10;99.90;;;;;;4974220;28;20412;-73
2022/10/12 08:22:31;;;;;;;1999.90;999.90;;;9.10;99.90;;;;;;4974054;28;20207;-73
2022/10/12 08:24:56;;;;;;;1999.90;999.90;;;9.10;99.90;;;;;;4974070;28;20412;-72
2022/10/12 08:27:22;;;;;;;1999.90;999.90;;;9.30;99.90;;;;;;4973854;28;20173;-72
2022/10/12 08:29:47;;;;;;;1999.90;999.90;;;9.30;99.90;;;;;;4973870;28;20170;-73
2022/10/12 08:32:13;;;;;;;1999.90;999.90;;;9.40;99.90;;;;;;4973363;28;20452;-73
2022/10/12 08:34:41;;;;;;;1999.90;999.90;;;9.40;99.90;;;;;;4973965;28;20188;-73
2022/10/12 08:37:07;;;;;;;1999.90;999.90;;;9.50;99.90;;;;;;4973600;28;20431;-73
2022/10/12 08:39:33;;;;;;;1999.90;999.90;;;9.60;99.90;;;;;;4974097;28;20406;-73
2022/10/12 08:42:13;;;;;;;1999.90;999.90;;;9.60;99.90;;;;;;4973783;28;20197;-73
2022/10/12 08:45:00;;;;;;;1999.90;999.90;;;9.70;99.90;;;;;;4973788;28;20176;-73
2022/10/12 08:47:36;;;;;;;1999.90;999.90;;;9.70;99.90;;;;;;4974910;28;20742;-73
2022/10/12 08:50:05;;;;;;;1999.90;999.90;;;9.80;99.90;;;;;;4974588;28;20748;-72
2022/10/12 08:52:42;;;;;;;1999.90;999.90;;;9.90;99.90;;;;;;4973993;28;20500;-72
2022/10/12 08:55:31;;;;;;;1999.90;999.90;;;10.00;99.90;;;;;;4973637;28;20519;-73
2022/10/12 08:57:57;;;;;;;1999.90;999.90;;;10.10;99.90;;;;;;4973360;28;20405;-73
2022/10/12 09:00:23;;;;;;;1999.90;999.90;;;10.20;99.90;;;;;;4973744;28;20399;-73
2022/10/12 09:03:07;;;;;;;1999.90;999.90;;;10.20;99.90;;;;;;4973490;28;20661;-73
2022/10/12 09:05:39;;;;;;;1999.90;999.90;;;10.10;99.90;;;;;;4973377;28;20516;-72
2022/10/12 09:08:44;;;;;;;1999.90;999.90;;;10.10;99.90;;;;;;4973361;28;20405;-73
2022/10/12 09:11:26;;;;;;;1999.90;999.90;;;10.20;99.90;;;;;;4940366;28;20450;-73
2022/10/12 09:14:07;;;;;;;1999.90;999.90;;;10.30;99.90;;;;;;4973366;28;20402;-73
2022/10/12 09:16:42;;;;;;;1999.90;999.90;;;10.40;99.90;;;;;;4973750;28;20421;-73
2022/10/12 09:19:17;;;;;;;1999.90;999.90;;;10.50;99.90;;;;;;4974170;28;20759;-73
2022/10/12 09:21:46;;;;;;;1999.90;999.90;;;10.70;99.90;;;;;;4973362;28;20445;-73
2022/10/12 09:24:24;;;;;;;1999.90;999.90;;;10.80;99.90;;;;;;4973398;28;20409;-72
2022/10/12 09:26:54;;;;;;;1999.90;999.90;;;10.90;99.90;;;;;;4972940;28;20432;-73
2022/10/12 09:29:22;;;;;;;1999.90;999.90;;;11.10;99.90;;;;;;4973138;28;20769;-72
2022/10/12 09:32:15;;;;;;;1999.90;999.90;;;11.30;99.90;;;;;;4973105;28;20463;-73
2022/10/12 09:34:42;;;;;;;1999.90;999.90;;;11.40;99.90;;;;;;4973152;28;20398;-73
2022/10/12 09:37:17;;;;;;;1999.90;999.90;;;11.60;99.90;;;;;;4972762;28;20429;-72
2022/10/12 09:39:43;;;;;;;1999.90;999.90;;;11.80;99.90;;;;;;4973049;28;20916;-72
2022/10/12 09:42:10;;;;;;;1999.90;999.90;;;11.80;99.90;;;;;;4973417;28;20498;-73
2022/10/12 09:44:56;;;;;;;1999.90;999.90;;;12.00;99.90;;;;;;4977006;28;20529;-73
2022/10/12 09:47:30;;;;;;;1999.90;999.90;;;12.10;99.90;;;;;;4977055;28;20817;-73
2022/10/12 09:50:01;;;;;;;1999.90;999.90;;;12.40;99.90;;;;;;4977138;28;20787;-73
2022/10/12 09:52:43;;;;;;;1999.90;999.90;;;12.60;99.90;;;;;;4977070;28;20403;-71
2022/10/12 09:55:13;;;;;;;1999.90;999.90;;;12.90;99.90;;;;;;4976894;28;20583;-73
2022/10/12 09:57:40;;;;;;;1999.90;999.90;;;13.10;99.90;;;;;;4976628;28;20414;-73
2022/10/12 10:00:28;;;;;;;1999.90;999.90;;;13.40;99.90;;;;;;4976809;28;20408;-73
2022/10/12 10:02:54;;;;;;;1999.90;999.90;;;13.70;99.90;;;;;;4976853;28;20455;-73
2022/10/12 10:05:25;;;;;;;1999.90;999.90;;;13.90;99.90;;;;;;4976756;28;20506;-73
2022/10/12 10:07:51;;;;;;;1999.90;999.90;;;14.10;99.90;;;;;;4976623;28;20464;-73
2022/10/12 10:10:22;;;;;;;1999.90;999.90;;;14.30;99.90;;;;;;4976689;28;20411;-73
2022/10/12 10:13:00;;;;;;;1999.90;999.90;;;14.40;99.90;;;;;;4976757;28;20413;-74
2022/10/12 10:15:34;;;;;;;1999.90;999.90;;;14.50;99.90;;;;;;4976785;28;20457;-73
2022/10/12 10:18:05;;;;;;;1999.90;999.90;;;14.50;99.90;;;;;;4976318;28;20498;-70
2022/10/12 10:20:33;;;;;;;1999.90;999.90;;;14.50;99.90;;;;;;4976654;28;20421;-71
2022/10/12 10:23:01;;;;;;;1999.90;999.90;;;14.50;99.90;;;;;;4976690;28;20467;-70
2022/10/12 10:25:26;;;;;;;1999.90;999.90;;;14.50;99.90;;;;;;4976874;28;20515;-71
2022/10/12 10:28:20;;;;;;;1999.90;999.90;;;14.60;99.90;;;;;;4976480;28;20503;-70
2022/10/12 10:30:56;;;;;;;1999.90;999.90;;;14.60;99.90;;;;;;4977162;28;20221;-71
2022/10/12 10:33:22;;;;;;;1999.90;999.90;;;14.80;99.90;;;;;;4976654;28;20409;-71
2022/10/12 10:35:58;;;;;;;1999.90;999.90;;;14.90;99.90;;;;;;4976334;28;20438;-71
2022/10/12 10:38:24;;;;;;;1999.90;999.90;;;15.10;99.90;;;;;;4976057;28;20168;-71
2022/10/12 10:40:55;;;;;;;1999.90;999.90;;;15.30;99.90;;;;;;4976093;28;20418;-71
2022/10/12 10:43:27;;;;;;;1999.90;999.90;;;15.50;99.90;;;;;;4976116;28;20456;-71
2022/10/12 10:45:56;;;;;;;1999.90;999.90;;;15.60;99.90;;;;;;4975849;28;20510;-71
2022/10/12 10:48:27;;;;;;;1999.90;999.90;;;15.70;99.90;;;;;;4975742;28;20935;-71
2022/10/12 10:51:04;;;;;;;1999.90;999.90;;;15.80;99.90;;;;;;4976001;28;20405;-71
2022/10/12 10:53:44;;;;;;;1999.90;999.90;;;16.10;99.90;;;;;;4975963;28;20834;-70
2022/10/12 10:56:28;;;;;;;1999.90;999.90;;;16.30;99.90;;;;;;4975110;28;20427;-70
2022/10/12 10:59:00;;;;;;;1999.90;999.90;;;16.50;99.90;;;;;;4975786;28;20418;-71
2022/10/12 11:01:47;;;;;;;1999.90;999.90;;;16.60;99.90;;;;;;4976019;28;20840;-70
2022/10/12 11:04:28;;;;;;;1999.90;999.90;;;16.70;99.90;;;;;;4975746;28;20417;-71
2022/10/12 11:06:59;;;;;;;1999.90;999.90;;;16.90;99.90;;;;;;4975608;28;20425;-71
2022/10/12 11:09:46;;;;;;;1999.90;999.90;;;17.10;99.90;;;;;;4975620;28;20440;-71
2022/10/12 11:12:20;;;;;;;1999.90;999.90;;;17.40;99.90;;;;;;4975543;28;20457;-71
2022/10/12 11:14:49;;;;;;;1999.90;999.90;;;17.80;99.90;;;;;;4975918;28;20411;-71
2022/10/12 11:17:28;;;;;;;1999.90;999.90;;;18.10;99.90;;;;;;4975415;28;20411;-71
2022/10/12 11:20:11;;;;;;;1999.90;999.90;;;18.30;99.90;;;;;;4975398;28;20516;-71
2022/10/12 11:22:53;;;;;;;1999.90;999.90;;;18.40;99.90;;;;;;4975346;28;20814;-71
2022/10/12 11:25:29;;;;;;;1999.90;999.90;;;18.40;99.90;;;;;;4975300;28;20494;-71
2022/10/12 11:27:54;;;;;;;1999.90;999.90;;;18.50;99.90;;;;;;4975016;28;20411;-71
2022/10/12 11:30:23;;;;;;;1999.90;999.90;;;18.70;99.90;;;;;;4975262;28;20916;-71
2022/10/12 11:33:19;;;;;;;1999.90;999.90;;;19.10;99.90;;;;;;4974961;28;20201;-71
2022/10/12 11:35:45;;;;;;;1999.90;999.90;;;19.60;99.90;;;;;;4974151;28;20811;-71
2022/10/12 11:38:19;;;;;;;1999.90;999.90;;;20.00;99.90;;;;;;4974885;28;20409;-71
2022/10/12 11:40:53;;;;;;;1999.90;999.90;;;20.20;99.90;;;;;;4975026;28;20496;-71
2022/10/12 11:43:25;;;;;;;1999.90;999.90;;;20.40;99.90;;;;;;4974946;28;20458;-71
2022/10/12 11:45:55;;;;;;;1999.90;999.90;;;20.60;99.90;;;;;;4974643;28;20543;-71
2022/10/12 11:48:34;;;;;;;1999.90;999.90;;;21.20;99.90;;;;;;4975291;28;20973;-71
2022/10/12 11:51:00;;;;;;;1999.90;999.90;;;21.70;96.90;;;;;;4974792;28;20918;-70
2022/10/12 11:53:50;;;;;;;1999.90;999.90;;;22.10;95.50;;;;;;4974697;28;20413;-70
2022/10/12 11:56:20;;;;;;;1999.90;999.90;;;22.80;91.30;;;;;;4974597;28;20934;-72
2022/10/12 11:58:51;;;;;;;1999.90;999.90;;;22.90;82.40;;;;;;4974638;28;20404;-71
2022/10/12 12:01:16;;;;;;;1999.90;999.90;;;22.90;72.40;;;;;;4974597;28;20402;-71
2022/10/12 12:03:42;;;;;;;1999.90;999.90;;;23.40;67.90;;;;;;4974475;28;20463;-71
2022/10/12 12:06:29;;;;;;;1999.90;999.90;;;24.00;63.60;;;;;;4974300;28;20873;-71
2022/10/12 12:08:55;;;;;;;1999.90;999.90;;;24.00;50.10;;;;;;4974266;28;20225;-71
2022/10/12 12:11:23;;;;;;;1999.90;999.90;;;24.00;51.10;;;;;;4974401;28;20402;-71
2022/10/12 12:13:49;;;;;;;1999.90;999.90;;;24.10;51.80;;;;;;4974640;28;20173;-71
2022/10/12 12:16:15;;;;;;;1999.90;999.90;;;24.10;52.10;;;;;;4974340;28;20397;-72
2022/10/12 12:19:10;;;;;;;1999.90;999.90;;;23.80;50.30;;;;;;4974155;28;20612;-72